Time;durP1;ratioP1;P1;durP2;ratioP2;P2;SDS_P1;SDS_P2;PMS_P1;PMS_P2;Temp;Humidity;BMP_temperature;BMP_pressure;BME280_temperature;BME280_humidity;BME280_pressure;Samples;Min_cycle;Max_cycle;Signal;HPM_P1;HPM_P2
2023/04/12 00:00:26;;;;;;;5.80;2.47;;;;;;;10.37;100.00;-18307.19;4939606;28;20074;-82
2023/04/12 00:02:53;;;;;;;8.55;2.65;;;;;;;10.21;100.00;-18302.78;4937344;28;20068;-81
2023/04/12 00:05:21;;;;;;;9.13;2.13;;;;;;;10.12;100.00;-18300.59;4934180;28;20465;-80
2023/04/12 00:07:48;;;;;;;7.45;2.63;;;;;;;10.13;100.00;-18300.75;4938254;28;20448;-80
2023/04/12 00:10:13;;;;;;;6.43;2.50;;;;;;;10.17;100.00;-18301.97;4946458;28;20043;-82
2023/04/12 00:12:39;;;;;;;7.13;2.53;;;;;;;10.11;100.00;-18300.31;4930621;28;20051;-82
2023/04/12 00:15:05;;;;;;;7.78;2.25;;;;;;;10.14;100.00;-18301.16;4930077;28;20035;-80
2023/04/12 00:17:31;;;;;;;8.52;2.33;;;;;;;10.17;100.00;-18301.84;4934365;28;20040;-81
2023/04/12 00:19:57;;;;;;;8.18;2.35;;;;;;;10.25;100.00;-18304.03;4928826;28;20067;-81
2023/04/12 00:22:25;;;;;;;9.65;2.60;;;;;;;10.22;100.00;-18303.06;4935777;28;20406;-80
2023/04/12 00:24:50;;;;;;;9.57;2.92;;;;;;;10.37;100.00;-18307.34;4928805;28;20048;-80
2023/04/12 00:27:16;;;;;;;8.35;2.33;;;;;;;10.12;100.00;-18300.59;4930405;28;20510;-80
2023/04/12 00:29:41;;;;;;;8.43;2.45;;;;;;;10.15;100.00;-18301.28;4932347;28;20388;-81
2023/04/12 00:32:06;;;;;;;8.23;2.60;;;;;;;10.13;100.00;-18300.88;4944384;28;20075;-80
2023/04/12 00:34:32;;;;;;;7.45;2.22;;;;;;;10.15;100.00;-18301.28;4938100;28;20093;-82
2023/04/12 00:36:57;;;;;;;9.80;2.47;;;;;;;10.17;100.00;-18301.84;4938577;28;20036;-80
2023/04/12 00:39:22;;;;;;;10.75;2.45;;;;;;;10.17;100.00;-18301.84;4938123;28;20039;-80
2023/04/12 00:41:48;;;;;;;11.63;2.63;;;;;;;10.23;100.00;-18303.47;4933385;28;20419;-82
2023/04/12 00:44:16;;;;;;;9.02;2.08;;;;;;;10.24;100.00;-18303.63;4938464;28;20280;-81
2023/04/12 00:46:42;;;;;;;8.70;2.10;;;;;;;10.32;100.00;-18305.97;4937384;28;20043;-81
2023/04/12 00:49:07;;;;;;;7.20;2.38;;;;;;;10.17;100.00;-18301.97;4938280;28;20067;-81
2023/04/12 00:51:33;;;;;;;6.97;2.20;;;;;;;10.11;100.00;-18300.31;4937712;28;20047;-82
2023/04/12 00:54:00;;;;;;;6.65;2.13;;;;;;;10.17;100.00;-18301.97;4937582;28;20043;-82
2023/04/12 00:56:27;;;;;;;10.25;2.78;;;;;;;10.12;100.00;-18300.59;4946146;28;20102;-81
2023/04/12 00:58:55;;;;;;;6.97;2.10;;;;;;;10.21;100.00;-18302.78;4936180;28;20040;-81
2023/04/12 01:01:21;;;;;;;7.05;2.08;;;;;;;10.22;100.00;-18303.22;4940670;28;20392;-82
2023/04/12 01:03:49;;;;;;;8.40;2.40;;;;;;;10.15;100.00;-18301.41;4937515;28;20046;-80
2023/04/12 01:06:31;;;;;;;5.60;1.73;;;;;;;10.07;100.00;-18299.09;4935725;28;20036;-81
2023/04/12 01:08:56;;;;;;;6.38;1.90;;;;;;;10.05;100.00;-18298.53;4935364;28;20095;-81
2023/04/12 01:11:38;;;;;;;7.65;1.88;;;;;;;10.15;100.00;-18301.41;4942810;28;20046;-81
2023/04/12 01:14:18;;;;;;;6.97;2.03;;;;;;;10.13;100.00;-18300.88;4936836;28;20036;-82
2023/04/12 01:16:49;;;;;;;7.97;2.08;;;;;;;9.99;100.00;-18297.03;4935735;28;20044;-81
2023/04/12 01:19:44;;;;;;;4.47;1.83;;;;;;;10.01;100.00;-18297.56;4935449;28;21025;-81
2023/04/12 01:22:15;;;;;;;7.85;1.75;;;;;;;9.87;100.00;-18293.72;4935143;28;20039;-82
2023/04/12 01:25:02;;;;;;;7.07;1.70;;;;;;;9.84;100.00;-18293.03;4936871;28;20039;-81
2023/04/12 01:27:43;;;;;;;8.38;1.75;;;;;;;9.79;100.00;-18291.66;4934552;28;20040;-82
2023/04/12 01:30:12;;;;;;;5.22;1.58;;;;;;;9.72;100.00;-18289.75;4934819;28;20047;-82
2023/04/12 01:32:39;;;;;;;5.78;1.70;;;;;;;9.76;100.00;-18290.84;4942226;28;20059;-82
2023/04/12 01:35:07;;;;;;;6.97;1.83;;;;;;;9.74;100.00;-18290.16;4940614;28;20040;-81
2023/04/12 01:37:34;;;;;;;5.10;1.73;;;;;;;9.69;100.00;-18289.06;4939349;28;20047;-81
2023/04/12 01:40:00;;;;;;;5.97;1.98;;;;;;;9.76;100.00;-18290.69;4934333;28;20040;-82
2023/04/12 01:42:25;;;;;;;4.18;1.95;;;;;;;9.73;100.00;-18290.00;4940016;28;20079;-82
2023/04/12 01:44:51;;;;;;;5.72;1.40;;;;;;;9.63;100.00;-18287.41;4935602;28;20055;-82
2023/04/12 01:47:16;;;;;;;7.10;2.08;;;;;;;9.66;100.00;-18288.22;4933081;28;20067;-82
2023/04/12 01:50:09;;;;;;;6.20;1.77;;;;;;;9.63;100.00;-18287.41;4935762;28;20039;-81
2023/04/12 01:52:40;;;;;;;5.88;1.75;;;;;;;9.61;100.00;-18286.84;4930052;29;20119;-83
2023/04/12 01:55:06;;;;;;;9.55;1.80;;;;;;;9.56;100.00;-18285.47;4936941;28;20078;-81
2023/04/12 01:57:32;;;;;;;6.85;1.80;;;;;;;9.63;100.00;-18287.41;4936535;28;20035;-82
2023/04/12 02:00:01;;;;;;;7.75;1.83;;;;;;;9.54;100.00;-18284.94;4942816;28;20056;-82
2023/04/12 02:02:27;;;;;;;4.22;1.27;;;;;;;9.52;100.00;-18284.38;4937921;28;20043;-80
2023/04/12 02:04:53;;;;;;;5.22;1.60;;;;;;;9.47;100.00;-18283.13;4937022;28;20126;-82
2023/04/12 02:07:19;;;;;;;5.22;1.70;;;;;;;9.54;100.00;-18284.94;4935369;28;20098;-81
2023/04/12 02:09:45;;;;;;;6.03;1.60;;;;;;;9.56;100.00;-18285.47;4934309;28;20043;-82
2023/04/12 02:12:11;;;;;;;5.43;1.90;;;;;;;9.60;100.00;-18286.44;4935323;28;20046;-82
2023/04/12 02:14:36;;;;;;;6.40;1.70;;;;;;;9.60;100.00;-18286.56;4937105;28;20431;-81
2023/04/12 02:17:03;;;;;;;4.63;1.33;;;;;;;9.56;100.00;-18285.34;4935283;28;20098;-82
2023/04/12 02:19:29;;;;;;;6.60;1.95;;;;;;;9.54;100.00;-18284.94;4939117;28;20050;-80
2023/04/12 02:21:54;;;;;;;6.30;1.92;;;;;;;9.53;100.00;-18284.50;4934024;28;20039;-82
2023/04/12 02:24:20;;;;;;;6.30;1.58;;;;;;;9.56;100.00;-18285.34;4935452;28;20047;-81
2023/04/12 02:26:48;;;;;;;7.28;2.08;;;;;;;9.40;100.00;-18281.22;4937143;28;20083;-81
2023/04/12 02:29:14;;;;;;;5.32;1.45;;;;;;;9.42;100.00;-18281.63;4941958;28;20039;-81
2023/04/12 02:31:40;;;;;;;5.20;2.15;;;;;;;9.37;100.00;-18280.25;4934886;28;20043;-81
2023/04/12 02:34:06;;;;;;;7.20;1.70;;;;;;;9.30;100.00;-18278.47;4938765;28;20047;-82
2023/04/12 02:36:32;;;;;;;5.35;1.73;;;;;;;9.36;100.00;-18279.97;4936614;28;20043;-82
2023/04/12 02:38:57;;;;;;;7.93;1.95;;;;;;;9.30;100.00;-18278.47;4934758;28;20063;-82
2023/04/12 02:41:23;;;;;;;6.43;1.73;;;;;;;9.37;100.00;-18280.25;4939646;28;20503;-80
2023/04/12 02:43:49;;;;;;;7.07;1.80;;;;;;;9.42;100.00;-18281.63;4933567;28;20040;-82
2023/04/12 02:46:21;;;;;;;6.00;1.65;;;;;;;9.39;100.00;-18280.94;4935374;28;20067;-82
2023/04/12 02:48:47;;;;;;;9.50;1.80;;;;;;;9.33;100.00;-18279.16;4936683;28;20055;-80
2023/04/12 02:51:12;;;;;;;4.65;1.50;;;;;;;9.40;100.00;-18281.06;4934436;28;20042;-80
2023/04/12 02:53:38;;;;;;;7.63;2.30;;;;;;;9.31;100.00;-18278.75;4940329;28;20122;-82
2023/04/12 02:56:04;;;;;;;9.75;1.98;;;;;;;9.20;100.00;-18275.72;4938814;28;20407;-81
2023/04/12 02:58:30;;;;;;;9.18;2.35;;;;;;;9.14;100.00;-18274.19;4934694;28;20081;-81
2023/04/12 03:00:58;;;;;;;4.88;2.00;;;;;;;9.06;100.00;-18271.84;4935548;28;20432;-81
2023/04/12 03:03:24;;;;;;;7.45;2.00;;;;;;;9.10;100.00;-18272.97;4935728;28;20068;-81
2023/04/12 03:05:51;;;;;;;5.75;1.70;;;;;;;9.09;100.00;-18272.81;4933736;28;20039;-82
2023/04/12 03:08:17;;;;;;;7.88;2.35;;;;;;;9.11;100.00;-18273.38;4939638;28;20078;-81
2023/04/12 03:10:43;;;;;;;7.93;2.20;;;;;;;9.17;100.00;-18274.88;4936467;28;20042;-80
2023/04/12 03:13:08;;;;;;;7.30;2.10;;;;;;;9.08;100.00;-18272.41;4933072;28;20040;-80
2023/04/12 03:15:33;;;;;;;7.22;2.10;;;;;;;9.07;100.00;-18272.13;4933458;28;20044;-82
2023/04/12 03:17:59;;;;;;;5.28;2.00;;;;;;;9.05;100.00;-18271.72;4933235;28;20047;-82
2023/04/12 03:20:24;;;;;;;5.97;1.80;;;;;;;9.05;100.00;-18271.72;4949974;28;20047;-79
2023/04/12 03:22:50;;;;;;;6.97;1.73;;;;;;;9.13;100.00;-18273.78;4947444;28;20039;-82
2023/04/12 03:25:19;;;;;;;6.20;2.17;;;;;;;9.07;100.00;-18272.13;4931795;28;20054;-81
2023/04/12 03:27:45;;;;;;;7.88;2.33;;;;;;;9.09;100.00;-18272.81;4946282;28;20040;-80
2023/04/12 03:30:11;;;;;;;6.40;1.70;;;;;;;9.01;100.00;-18270.75;4933323;28;20099;-80
2023/04/12 03:32:37;;;;;;;6.22;1.55;;;;;;;9.05;100.00;-18271.72;4932887;28;20040;-80
2023/04/12 03:35:03;;;;;;;5.47;1.83;;;;;;;9.02;100.00;-18270.91;4932422;28;20027;-81
2023/04/12 03:37:29;;;;;;;4.00;1.55;;;;;;;9.06;100.00;-18272.00;4935230;28;20047;-81
2023/04/12 03:39:54;;;;;;;5.53;1.75;;;;;;;9.10;100.00;-18273.09;4934034;28;20069;-81
2023/04/12 03:42:20;;;;;;;4.50;1.35;;;;;;;9.02;100.00;-18270.91;4933011;28;20087;-81
2023/04/12 03:44:45;;;;;;;8.23;2.00;;;;;;;8.97;100.00;-18269.53;4932475;28;20543;-81
2023/04/12 03:47:10;;;;;;;7.68;1.70;;;;;;;9.00;100.00;-18270.34;4932081;28;20131;-81
2023/04/12 03:49:37;;;;;;;6.90;1.70;;;;;;;8.99;100.00;-18270.06;4931529;28;20052;-82
2023/04/12 03:52:04;;;;;;;5.00;1.60;;;;;;;8.95;100.00;-18268.97;4935326;28;20134;-80
2023/04/12 03:54:29;;;;;;;6.50;1.60;;;;;;;8.97;100.00;-18269.66;4934463;28;20054;-82
2023/04/12 03:56:55;;;;;;;4.40;1.58;;;;;;;9.00;100.00;-18270.34;4934129;28;20056;-81
2023/04/12 03:59:21;;;;;;;6.50;1.70;;;;;;;9.01;100.00;-18270.63;4932262;28;20063;-81
2023/04/12 04:01:46;;;;;;;3.70;1.67;;;;;;;8.95;100.00;-18269.09;4942322;28;20566;-81
2023/04/12 04:04:12;;;;;;;7.72;1.70;;;;;;;8.92;100.00;-18268.28;4933229;28;20056;-80
2023/04/12 04:06:38;;;;;;;4.22;1.50;;;;;;;8.99;100.00;-18270.06;4933532;28;20098;-81
2023/04/12 04:09:04;;;;;;;5.32;1.25;;;;;;;8.88;100.00;-18267.19;4936211;28;20074;-80
2023/04/12 04:11:30;;;;;;;4.75;1.40;;;;;;;8.90;100.00;-18267.59;4936785;28;20056;-82
2023/04/12 04:13:58;;;;;;;4.22;1.60;;;;;;;8.91;100.00;-18267.88;4937033;28;20027;-81
2023/04/12 04:16:24;;;;;;;4.65;1.38;;;;;;;8.96;100.00;-18269.25;4935852;28;20055;-81
2023/04/12 04:18:49;;;;;;;3.63;1.40;;;;;;;9.02;100.00;-18270.91;4936341;28;20207;-80
2023/04/12 04:21:14;;;;;;;4.70;1.58;;;;;;;9.00;100.00;-18270.34;4936615;28;20627;-79
2023/04/12 04:23:43;;;;;;;3.75;1.60;;;;;;;8.90;100.00;-18267.72;4938619;28;20049;-81
2023/04/12 04:26:09;;;;;;;3.15;1.52;;;;;;;8.80;100.00;-18265.13;4931695;28;20056;-80
2023/04/12 04:28:45;;;;;;;5.53;1.90;;;;;;;8.82;100.00;-18265.66;4934483;28;20118;-81
2023/04/12 04:31:11;;;;;;;5.75;1.77;;;;;;;8.82;100.00;-18265.66;4938828;28;20043;-82
2023/04/12 04:33:37;;;;;;;4.75;1.27;;;;;;;8.88;100.00;-18267.03;4933116;28;20032;-81
2023/04/12 04:36:05;;;;;;;6.88;1.52;;;;;;;8.85;100.00;-18266.22;4932319;28;20455;-81
2023/04/12 04:38:33;;;;;;;7.32;1.73;;;;;;;8.87;100.00;-18266.78;4934747;28;20051;-80
2023/04/12 04:41:03;;;;;;;4.63;1.70;;;;;;;8.91;100.00;-18267.88;4935769;28;20063;-81
2023/04/12 04:43:29;;;;;;;5.53;1.80;;;;;;;8.94;100.00;-18268.69;4935358;28;20044;-81
2023/04/12 04:45:56;;;;;;;6.47;1.55;;;;;;;8.87;100.00;-18266.78;4933185;28;20046;-81
2023/04/12 04:48:22;;;;;;;5.35;1.50;;;;;;;8.84;100.00;-18266.09;4933371;28;23890;-79
2023/04/12 04:50:50;;;;;;;5.03;1.63;;;;;;;8.90;100.00;-18267.72;4933865;28;20051;-81
2023/04/12 04:53:17;;;;;;;2.72;1.40;;;;;;;8.86;100.00;-18266.50;4934843;28;20064;-81
2023/04/12 04:55:43;;;;;;;4.15;1.83;;;;;;;8.89;100.00;-18267.31;4937020;28;20066;-80
2023/04/12 04:58:08;;;;;;;3.88;1.50;;;;;;;8.96;100.00;-18269.25;4944611;28;20578;-81
2023/04/12 05:00:35;;;;;;;6.50;1.42;;;;;;;8.91;100.00;-18267.88;4937392;28;20055;-81
2023/04/12 05:03:01;;;;;;;4.05;1.75;;;;;;;8.88;100.00;-18267.19;4927161;28;20053;-82
2023/04/12 05:05:27;;;;;;;4.55;1.52;;;;;;;8.81;100.00;-18265.25;4930817;29;20051;-81
2023/04/12 05:07:52;;;;;;;5.20;1.52;;;;;;;8.76;100.00;-18264.00;4931582;28;20115;-81
2023/04/12 05:10:17;;;;;;;2.58;1.23;;;;;;;8.73;100.00;-18263.06;4937975;28;20046;-82
2023/04/12 05:12:43;;;;;;;4.72;1.63;;;;;;;8.78;100.00;-18264.44;4935633;28;20112;-81
2023/04/12 05:15:09;;;;;;;3.50;1.30;;;;;;;8.69;100.00;-18262.09;4942927;28;20130;-81
2023/04/12 05:17:34;;;;;;;4.50;1.58;;;;;;;8.69;100.00;-18262.09;4934001;28;20039;-80
2023/04/12 05:20:00;;;;;;;5.32;1.48;;;;;;;8.58;100.00;-18259.06;4946193;28;20197;-82
2023/04/12 05:22:28;;;;;;;5.60;1.55;;;;;;;8.58;100.00;-18259.19;4932080;28;20043;-81
2023/04/12 05:24:53;;;;;;;4.38;1.30;;;;;;;8.55;100.00;-18258.38;4931964;28;20048;-81
2023/04/12 05:27:19;;;;;;;5.50;1.60;;;;;;;8.60;100.00;-18259.63;4933005;28;20042;-81
2023/04/12 05:29:44;;;;;;;4.22;1.40;;;;;;;8.62;100.00;-18260.16;4933102;28;20035;-81
2023/04/12 05:32:10;;;;;;;5.90;1.63;;;;;;;8.57;100.00;-18258.78;4932722;28;20115;-81
2023/04/12 05:34:36;;;;;;;5.28;1.80;;;;;;;8.55;100.00;-18258.25;4932300;28;20043;-81
2023/04/12 05:37:02;;;;;;;3.30;1.48;;;;;;;8.48;100.00;-18256.31;4931494;28;20040;-82
2023/04/12 05:39:28;;;;;;;3.67;1.70;;;;;;;8.44;100.00;-18255.34;4930885;28;20036;-81
2023/04/12 05:41:54;;;;;;;5.53;1.88;;;;;;;8.45;100.00;-18255.47;4933322;28;20063;-82
2023/04/12 05:44:19;;;;;;;3.83;1.60;;;;;;;8.45;100.00;-18255.47;4937847;28;20523;-82
2023/04/12 05:46:45;;;;;;;2.75;1.40;;;;;;;8.47;100.00;-18256.03;4933402;28;20408;-81
2023/04/12 05:49:11;;;;;;;5.05;1.30;;;;;;;8.36;100.00;-18253.28;4929133;28;20571;-81
2023/04/12 05:51:36;;;;;;;3.17;1.38;;;;;;;8.41;100.00;-18254.38;4937119;28;20407;-81
2023/04/12 05:54:05;;;;;;;6.45;1.63;;;;;;;8.36;100.00;-18253.28;4936935;28;20023;-83
2023/04/12 05:56:30;;;;;;;7.45;2.45;;;;;;;8.45;100.00;-18255.47;4938083;28;20039;-82
2023/04/12 05:58:56;;;;;;;4.47;1.50;;;;;;;8.48;100.00;-18256.31;4936130;28;20043;-82
2023/04/12 06:01:23;;;;;;;4.40;1.95;;;;;;;8.43;100.00;-18254.94;4937371;28;20050;-83
2023/04/12 06:03:49;;;;;;;4.53;1.83;;;;;;;8.36;100.00;-18253.28;4937656;28;20044;-82
2023/04/12 06:06:16;;;;;;;3.30;1.52;;;;;;;8.40;100.00;-18254.25;4938698;28;20499;-82
2023/04/12 06:08:41;;;;;;;4.43;1.65;;;;;;;8.36;100.00;-18253.28;4937430;28;20446;-81
2023/04/12 06:11:08;;;;;;;4.05;2.08;;;;;;;8.34;100.00;-18252.72;4936948;28;20043;-83
2023/04/12 06:13:33;;;;;;;5.72;1.67;;;;;;;8.32;100.00;-18252.19;4937522;28;20044;-83
2023/04/12 06:15:59;;;;;;;4.10;1.88;;;;;;;8.36;100.00;-18253.28;4937333;28;20102;-84
2023/04/12 06:18:24;;;;;;;6.15;2.33;;;;;;;8.33;100.00;-18252.31;4936781;28;20459;-80
2023/04/12 06:20:50;;;;;;;4.82;1.88;;;;;;;8.33;100.00;-18252.44;4935892;28;20059;-82
2023/04/12 06:23:18;;;;;;;2.70;1.77;;;;;;;8.37;100.00;-18253.41;4935652;28;20046;-82
2023/04/12 06:25:43;;;;;;;5.85;2.30;;;;;;;8.35;100.00;-18253.00;4937917;28;20153;-83
2023/04/12 06:28:08;;;;;;;4.72;2.28;;;;;;;8.41;100.00;-18254.53;4935688;28;20051;-83
2023/04/12 06:30:34;;;;;;;7.47;2.58;;;;;;;8.47;100.00;-18256.03;4936712;28;20050;-82
2023/04/12 06:32:59;;;;;;;7.75;2.30;;;;;;;8.39;100.00;-18253.84;4937159;28;20491;-83
2023/04/12 06:35:24;;;;;;;3.33;1.90;;;;;;;8.37;100.00;-18253.41;4936180;28;20110;-81
2023/04/12 06:37:50;;;;;;;6.07;2.65;;;;;;;8.33;100.00;-18252.31;4936283;28;20050;-82
2023/04/12 06:40:15;;;;;;;5.95;2.22;;;;;;;8.33;100.00;-18252.44;4936199;28;20107;-84
2023/04/12 06:42:40;;;;;;;4.05;2.35;;;;;;;8.34;100.00;-18252.59;4936265;28;20087;-84
2023/04/12 06:45:06;;;;;;;4.95;2.15;;;;;;;8.43;100.00;-18254.94;4933935;28;20065;-81
2023/04/12 06:47:32;;;;;;;6.05;2.20;;;;;;;8.40;100.00;-18254.25;4936935;28;20047;-84
2023/04/12 06:49:57;;;;;;;7.05;2.70;;;;;;;8.38;100.00;-18253.56;4937934;28;20042;-82
2023/04/12 06:52:26;;;;;;;4.32;2.15;;;;;;;8.43;100.00;-18254.94;4950121;28;20039;-83
2023/04/12 06:54:52;;;;;;;5.07;2.90;;;;;;;8.49;100.00;-18256.59;4935034;28;20040;-82
2023/04/12 06:57:17;;;;;;;4.68;2.35;;;;;;;8.51;100.00;-18257.13;4935267;28;20036;-83
2023/04/12 06:59:42;;;;;;;5.45;2.50;;;;;;;8.51;100.00;-18257.13;4935977;28;20086;-83
2023/04/12 07:02:08;;;;;;;5.90;2.75;;;;;;;8.42;100.00;-18254.78;4935454;28;20500;-84
2023/04/12 07:04:33;;;;;;;6.47;2.83;;;;;;;8.43;100.00;-18254.94;4936851;28;20067;-82
2023/04/12 07:06:59;;;;;;;5.47;2.58;;;;;;;8.40;100.00;-18254.09;4936706;28;20067;-81
2023/04/12 07:09:24;;;;;;;7.05;2.80;;;;;;;8.52;100.00;-18257.56;4936719;28;20039;-84
2023/04/12 07:11:50;;;;;;;5.85;2.55;;;;;;;8.60;100.00;-18259.63;4935937;28;20039;-84
2023/04/12 07:14:15;;;;;;;6.97;2.60;;;;;;;8.55;100.00;-18258.38;4936155;28;20575;-82
2023/04/12 07:16:41;;;;;;;5.57;3.20;;;;;;;8.52;100.00;-18257.41;4936364;28;20035;-84
2023/04/12 07:19:07;;;;;;;5.35;2.85;;;;;;;8.56;100.00;-18258.50;4935168;28;20503;-83
2023/04/12 07:21:32;;;;;;;6.07;3.33;;;;;;;8.61;100.00;-18259.75;4952177;28;20048;-83
2023/04/12 07:23:58;;;;;;;7.88;3.20;;;;;;;8.68;100.00;-18261.81;4935707;28;20048;-84
2023/04/12 07:26:23;;;;;;;7.07;3.40;;;;;;;8.64;100.00;-18260.56;4937938;28;20046;-81
2023/04/12 07:28:49;;;;;;;6.85;3.30;;;;;;;8.61;100.00;-18259.88;4935515;28;20134;-83
2023/04/12 07:31:14;;;;;;;6.38;3.30;;;;;;;8.61;100.00;-18259.75;4939894;28;20039;-81
2023/04/12 07:33:40;;;;;;;6.03;3.35;;;;;;;8.67;100.00;-18261.53;4935235;28;20563;-82
2023/04/12 07:36:05;;;;;;;5.85;3.30;;;;;;;8.67;100.00;-18261.53;4937692;28;20055;-83
2023/04/12 07:38:31;;;;;;;6.43;3.67;;;;;;;8.59;100.00;-18259.34;4949523;28;20102;-82
2023/04/12 07:40:56;;;;;;;5.57;3.67;;;;;;;8.58;100.00;-18259.06;4948804;28;20054;-83
2023/04/12 07:43:22;;;;;;;6.55;3.40;;;;;;;8.58;100.00;-18259.19;4936946;28;20144;-83
2023/04/12 07:45:48;;;;;;;5.38;3.25;;;;;;;8.63;100.00;-18260.44;4936671;28;20047;-83
2023/04/12 07:48:13;;;;;;;7.35;4.20;;;;;;;8.62;100.00;-18260.16;4935558;28;20039;-83
2023/04/12 07:50:40;;;;;;;8.00;3.78;;;;;;;8.61;100.00;-18259.75;4935665;28;20129;-83
2023/04/12 07:53:37;;;;;;;5.97;3.83;;;;;;;8.65;100.00;-18260.84;4932794;28;20547;-83
2023/04/12 07:56:05;;;;;;;9.15;4.47;;;;;;;8.70;100.00;-18262.22;4931002;28;20139;-84
2023/04/12 07:58:31;;;;;;;6.45;3.17;;;;;;;8.70;100.00;-18262.22;4936085;28;20039;-81
2023/04/12 08:00:57;;;;;;;10.05;4.47;;;;;;;8.77;100.00;-18264.16;4933314;28;20042;-82
2023/04/12 08:03:23;;;;;;;8.10;4.20;;;;;;;8.66;100.00;-18261.13;4938620;28;20047;-82
2023/04/12 08:05:52;;;;;;;8.95;3.90;;;;;;;8.69;100.00;-18262.09;4945018;28;20039;-82
2023/04/12 08:08:21;;;;;;;7.15;3.88;;;;;;;8.74;100.00;-18263.47;4929025;28;20063;-84
2023/04/12 08:10:47;;;;;;;7.75;4.53;;;;;;;8.81;100.00;-18265.41;4932997;28;20114;-82
2023/04/12 08:13:12;;;;;;;8.45;4.50;;;;;;;8.82;100.00;-18265.66;4935642;28;20066;-81
2023/04/12 08:15:38;;;;;;;8.35;4.10;;;;;;;8.80;100.00;-18265.13;4937560;28;20787;-81
2023/04/12 08:18:03;;;;;;;7.78;4.60;;;;;;;8.83;100.00;-18265.81;4939994;28;20048;-87
2023/04/12 08:20:29;;;;;;;6.88;4.25;;;;;;;8.93;100.00;-18268.56;4933186;28;20071;-81
2023/04/12 08:22:54;;;;;;;6.00;3.80;;;;;;;8.93;100.00;-18268.56;4937069;28;20043;-82
2023/04/12 08:25:20;;;;;;;6.78;4.00;;;;;;;8.94;100.00;-18268.69;4935000;28;20052;-84
2023/04/12 08:27:45;;;;;;;6.57;3.92;;;;;;;8.90;100.00;-18267.59;4931533;28;20067;-83
2023/04/12 08:30:12;;;;;;;6.75;3.63;;;;;;;8.91;100.00;-18268.00;4931881;28;20058;-80
2023/04/12 08:32:37;;;;;;;9.00;3.95;;;;;;;8.96;100.00;-18269.38;4933307;28;20043;-83
2023/04/12 08:35:06;;;;;;;7.68;3.80;;;;;;;9.02;100.00;-18271.03;4931667;28;20032;-82
2023/04/12 08:37:32;;;;;;;7.15;3.88;;;;;;;9.06;100.00;-18271.84;4933046;28;20032;-83
2023/04/12 08:40:07;;;;;;;7.18;4.05;;;;;;;9.08;100.00;-18272.53;4934199;28;20515;-82
2023/04/12 08:42:36;;;;;;;5.18;4.13;;;;;;;9.12;100.00;-18273.66;4935698;28;20031;-81
2023/04/12 08:45:09;;;;;;;8.10;4.20;;;;;;;9.10;100.00;-18272.97;4933541;28;20506;-84
2023/04/12 08:47:37;;;;;;;8.40;4.47;;;;;;;9.12;100.00;-18273.66;4928533;28;20939;-86
2023/04/12 08:50:07;;;;;;;5.13;3.80;;;;;;;9.08;100.00;-18272.53;4930258;28;20180;-81
2023/04/12 08:52:33;;;;;;;6.05;4.53;;;;;;;9.10;100.00;-18273.09;4927580;28;20043;-83
2023/04/12 08:55:02;;;;;;;8.88;4.43;;;;;;;9.11;100.00;-18273.38;4935605;28;20035;-81
2023/04/12 08:57:28;;;;;;;9.83;4.53;;;;;;;9.10;100.00;-18273.09;4934065;28;20043;-83
2023/04/12 08:59:53;;;;;;;8.15;5.47;;;;;;;9.18;100.00;-18275.31;4933731;28;20059;-84
2023/04/12 09:02:19;;;;;;;6.72;4.72;;;;;;;9.11;100.00;-18273.22;4935152;28;20623;-83
2023/04/12 09:04:52;;;;;;;8.65;5.25;;;;;;;9.21;100.00;-18276.13;4948734;28;20046;-86
2023/04/12 09:07:18;;;;;;;7.65;5.35;;;;;;;9.25;100.00;-18277.22;4935134;28;20408;-84
2023/04/12 09:09:46;;;;;;;8.07;5.68;;;;;;;9.22;100.00;-18276.41;4934283;28;20606;-86
2023/04/12 09:12:12;;;;;;;9.52;6.75;;;;;;;9.26;100.00;-18277.34;4937289;28;20419;-82
2023/04/12 09:14:39;;;;;;;9.98;7.95;;;;;;;9.22;100.00;-18276.41;4936255;28;20039;-84
2023/04/12 09:17:20;;;;;;;12.05;7.05;;;;;;;9.23;100.00;-18276.66;4934952;28;20107;-81
2023/04/12 09:19:45;;;;;;;9.82;7.32;;;;;;;9.25;100.00;-18277.22;4933726;28;20110;-82
2023/04/12 09:22:11;;;;;;;9.52;7.30;;;;;;;9.29;100.00;-18278.06;4936746;28;20044;-81
2023/04/12 09:24:52;;;;;;;11.02;8.25;;;;;;;9.27;100.00;-18277.78;4934144;28;20084;-84
2023/04/12 09:27:20;;;;;;;12.80;9.07;;;;;;;9.24;100.00;-18276.94;4945611;28;20495;-84
2023/04/12 09:29:50;;;;;;;12.00;8.35;;;;;;;9.32;100.00;-18278.88;4938367;28;20130;-82
2023/04/12 09:32:25;;;;;;;13.63;9.38;;;;;;;9.29;100.00;-18278.06;4948024;28;20035;-83
2023/04/12 09:34:56;;;;;;;15.23;11.07;;;;;;;9.31;100.00;-18278.75;4944180;28;20047;-82
2023/04/12 09:37:22;;;;;;;14.50;10.90;;;;;;;9.26;100.00;-18277.34;4939827;28;20040;-85
2023/04/12 09:39:57;;;;;;;14.00;11.05;;;;;;;9.39;100.00;-18280.81;4936865;28;20040;-83
2023/04/12 09:42:23;;;;;;;14.70;11.30;;;;;;;9.42;100.00;-18281.75;4939186;28;20043;-85
2023/04/12 09:44:48;;;;;;;17.50;12.98;;;;;;;9.51;100.00;-18284.09;4937598;28;20468;-83
2023/04/12 09:47:13;;;;;;;14.00;11.48;;;;;;;9.47;100.00;-18283.13;4938549;28;20035;-82
2023/04/12 09:49:43;;;;;;;15.98;12.43;;;;;;;9.62;100.00;-18287.00;4939763;28;20131;-83
2023/04/12 09:52:13;;;;;;;17.17;13.82;;;;;;;9.64;100.00;-18287.53;4933979;28;20046;-83
2023/04/12 09:54:43;;;;;;;17.40;14.43;;;;;;;9.66;100.00;-18288.22;4945325;28;20332;-84
2023/04/12 09:57:10;;;;;;;18.33;13.90;;;;;;;9.63;100.00;-18287.41;4938769;28;20597;-83
2023/04/12 09:59:40;;;;;;;16.33;11.65;;;;;;;9.60;100.00;-18286.56;4936877;28;20067;-86
2023/04/12 10:02:22;;;;;;;13.20;8.05;;;;;;;9.43;100.00;-18281.91;4943619;28;20122;-84
2023/04/12 10:04:48;;;;;;;15.05;5.80;;;;;;;9.18;100.00;-18275.16;4934828;28;20400;-85
2023/04/12 10:07:14;;;;;;;11.15;4.18;;;;;;;9.06;100.00;-18271.84;4936756;28;20039;-82
2023/04/12 10:09:40;;;;;;;9.30;4.18;;;;;;;9.08;100.00;-18272.41;4942960;28;20050;-83
2023/04/12 10:12:07;;;;;;;12.02;4.13;;;;;;;9.09;100.00;-18272.81;4938284;28;20035;-86
2023/04/12 10:14:33;;;;;;;9.38;4.60;;;;;;;9.15;100.00;-18274.47;4940340;28;20039;-84
2023/04/12 10:17:00;;;;;;;10.68;3.85;;;;;;;9.13;100.00;-18273.78;4955496;28;20043;-84
2023/04/12 10:19:28;;;;;;;11.30;3.25;;;;;;;9.15;100.00;-18274.47;4937711;28;20337;-85
2023/04/12 10:21:56;;;;;;;12.40;4.72;;;;;;;9.14;100.00;-18274.19;4941257;28;20047;-84
2023/04/12 10:24:24;;;;;;;8.60;3.63;;;;;;;9.15;100.00;-18274.34;4939171;28;20055;-83
2023/04/12 10:26:51;;;;;;;9.90;3.78;;;;;;;9.18;100.00;-18275.16;4943761;28;20618;-84
2023/04/12 10:29:32;;;;;;;11.02;3.90;;;;;;;9.25;100.00;-18277.22;4940972;28;20095;-84
2023/04/12 10:32:21;;;;;;;7.82;3.58;;;;;;;9.22;100.00;-18276.25;4941912;28;20047;-83
2023/04/12 10:34:55;;;;;;;13.23;6.00;;;;;;;9.29;100.00;-18278.19;4938607;28;20595;-83
2023/04/12 10:37:21;;;;;;;15.80;7.05;;;;;;;9.49;100.00;-18283.69;4942664;28;20044;-82
2023/04/12 10:39:55;;;;;;;8.27;4.55;;;;;;;9.49;100.00;-18283.56;4952551;28;20043;-83
2023/04/12 10:42:22;;;;;;;13.77;5.15;;;;;;;9.51;100.00;-18283.97;4941906;28;20103;-82
2023/04/12 10:44:49;;;;;;;12.85;5.55;;;;;;;9.64;100.00;-18287.69;4938676;28;20191;-83
2023/04/12 10:47:15;;;;;;;11.48;5.72;;;;;;;9.70;100.00;-18289.31;4938649;28;20044;-86
2023/04/12 10:50:18;;;;;;;10.68;5.07;;;;;;;9.82;100.00;-18292.34;4950710;28;20039;-86
2023/04/12 10:53:15;;;;;;;12.15;4.88;;;;;;;9.86;100.00;-18293.59;4962388;28;20042;-85
2023/04/12 10:55:43;;;;;;;9.85;4.75;;;;;;;10.01;100.00;-18297.44;4950145;28;20103;-82
2023/04/12 10:58:09;;;;;;;14.18;5.93;;;;;;;10.04;100.00;-18298.25;4936148;28;20064;-85
2023/04/12 11:00:59;;;;;;;11.90;4.28;;;;;;;10.01;100.00;-18297.44;4945402;28;20562;-84
2023/04/12 11:03:27;;;;;;;11.65;5.03;;;;;;;10.03;100.00;-18298.13;4936664;28;20118;-85
2023/04/12 11:06:01;;;;;;;12.60;4.78;;;;;;;10.13;100.00;-18300.88;4938343;28;20048;-84
2023/04/12 11:08:31;;;;;;;12.32;5.03;;;;;;;10.35;100.00;-18306.78;4950393;28;20434;-84
2023/04/12 11:11:01;;;;;;;15.38;4.35;;;;;;;10.50;100.00;-18310.63;4941611;28;20043;-83
2023/04/12 11:13:28;;;;;;;11.88;4.85;;;;;;;10.52;100.00;-18311.19;4948157;28;20047;-85
2023/04/12 11:15:56;;;;;;;14.25;4.07;;;;;;;10.65;100.00;-18314.63;4940923;28;20040;-84
2023/04/12 11:18:22;;;;;;;14.10;4.50;;;;;;;10.80;100.00;-18318.88;4938375;28;20490;-84
2023/04/12 11:20:51;;;;;;;11.93;4.22;;;;;;;10.86;100.00;-18320.38;4950567;28;20048;-82
2023/04/12 11:23:17;;;;;;;12.15;3.80;;;;;;;10.87;100.00;-18320.53;4939093;28;20040;-82